Airport ID:KTSP
Update Time (UTC):21 NOV 19 10:17
Wind Speed (Knots):4
Wind Direction (Magnetic):130
Temperature (°C):0
Dew Point (°C):0
Humidity (%):100
Altimeter (inHg):29.76
Density Altitude (Feet):
Visibility (Miles):10
Clouds (Hundreds of feet):CLR
Present Weather:NO PRECIPITATION
METAR:METAR KTSP 211015Z AUTO 13004KT 10SM CLR 00/00 A2976 RMK AO2

The data displayed is for advisory purposes only and is not to be used for flight planning or operations.

This page is not automatically refreshed. Reload the page to see current data.